Íslenskir flugvellir

Veldu flugvelli í þeirri röð sem þeir eiga að birtast og styddu á hnappinn

Uppfært síðast 23.10.2020 - kl. 22:35

SIGMET síðustu 6 klst.

Engin SIGMET skeyti bárust síðustu 6 klst.

Egilsstaðir

METAR síðustu 3 klst

TímiSkeyti
2020-10-23 22.00METAR BIEG 232200Z 10008KT 9999 SCT022 BKN040 06/03 Q0988
2020-10-23 21.00METAR BIEG 232100Z 06007G17KT 9999 SCT025 BKN040 06/03 Q0988
2020-10-23 20.00METAR BIEG 232000Z 31006KT 9999 OVC043 05/02 Q0988

TAF

TAFBIEG2020-10-23 19.44Z23212109015G25KT 9999 -RA BKN024 TX05/2321Z TN02/2403Z BECMG 2417/2419 RA

Allur vindur er réttvísandi bæði í Metar og frá sjálfvirkum veðurstöðvum




Aðrir tengdir vefir



Þetta vefsvæði byggir á Eplica